Time;durP1;ratioP1;P1;durP2;ratioP2;P2;SDS_P1;SDS_P2;PMS_P1;PMS_P2;Temp;Humidity;BMP_temperature;BMP_pressure;BME280_temperature;BME280_humidity;BME280_pressure;Samples;Min_cycle;Max_cycle;Signal;HPM_P1;HPM_P2
2021/09/06 00:01:20;;;;;;;29.00;22.57;;;;;;;15.72;71.76;102019.47;5057413;28;20339;-73
2021/09/06 00:03:45;;;;;;;29.80;24.47;;;;;;;15.78;71.97;102015.16;5058254;28;20169;-72
2021/09/06 00:06:10;;;;;;;31.30;25.03;;;;;;;15.54;72.85;102025.44;5058999;28;20170;-70
2021/09/06 00:08:36;;;;;;;28.07;24.43;;;;;;;15.59;72.66;102018.50;5058161;28;20184;-71
2021/09/06 00:11:04;;;;;;;26.57;23.40;;;;;;;15.69;72.21;102015.06;5058166;28;20173;-72
2021/09/06 00:13:29;;;;;;;31.13;24.63;;;;;;;15.73;71.65;102022.09;5058427;28;20231;-70
2021/09/06 00:15:55;;;;;;;29.20;24.70;;;;;;;15.65;72.24;102023.78;5058011;28;20445;-72
2021/09/06 00:18:20;;;;;;;29.03;23.87;;;;;;;15.51;72.48;102023.66;5063833;28;20176;-71
2021/09/06 00:20:45;;;;;;;27.43;24.13;;;;;;;15.63;72.47;102017.66;5058648;28;20436;-71
2021/09/06 00:23:11;;;;;;;36.47;30.00;;;;;;;15.53;72.48;102016.66;5060696;28;20435;-70
2021/09/06 00:25:37;;;;;;;55.03;44.33;;;;;;;15.56;72.52;102011.47;5065226;28;20177;-73
2021/09/06 00:28:02;;;;;;;35.97;30.30;;;;;;;15.50;72.74;102008.75;5061368;28;20165;-71
2021/09/06 00:30:28;;;;;;;29.97;25.30;;;;;;;15.54;72.83;102015.81;5058675;28;20390;-72
2021/09/06 00:32:53;;;;;;;28.63;23.00;;;;;;;15.46;73.00;102010.47;5057312;28;20454;-71
2021/09/06 00:35:18;;;;;;;27.27;24.20;;;;;;;15.43;72.99;102009.56;5057924;28;20223;-72
2021/09/06 00:37:44;;;;;;;34.17;26.90;;;;;;;15.58;72.75;102000.97;5057898;28;20464;-72
2021/09/06 00:40:10;;;;;;;34.60;27.23;;;;;;;15.52;72.61;102004.41;5057743;28;20239;-72
2021/09/06 00:42:35;;;;;;;31.90;25.10;;;;;;;15.59;72.28;101994.84;5058215;28;20227;-71
2021/09/06 00:45:00;;;;;;;29.80;25.57;;;;;;;15.53;72.34;101997.41;5057676;28;20169;-71
2021/09/06 00:47:26;;;;;;;28.90;23.83;;;;;;;15.51;72.85;102001.78;5061626;28;20217;-71
2021/09/06 00:49:51;;;;;;;30.30;24.30;;;;;;;15.40;72.57;102004.31;5062542;28;20169;-72
2021/09/06 00:52:17;;;;;;;28.27;23.53;;;;;;;15.50;72.46;102000.88;5061863;28;20253;-70
2021/09/06 00:54:42;;;;;;;37.40;26.70;;;;;;;15.40;72.65;102001.69;5061915;28;20539;-70
2021/09/06 00:57:07;;;;;;;32.60;25.13;;;;;;;15.48;72.20;102002.63;5061522;28;20531;-71
2021/09/06 00:59:33;;;;;;;30.83;24.53;;;;;;;15.39;72.54;102002.53;5062777;28;20180;-71
2021/09/06 01:01:59;;;;;;;35.20;27.10;;;;;;;15.39;72.54;101998.13;5065234;28;20450;-72
2021/09/06 01:04:24;;;;;;;30.47;26.17;;;;;;;15.33;72.59;102000.72;5068527;28;20161;-74
2021/09/06 01:06:49;;;;;;;33.17;26.67;;;;;;;15.41;72.43;102003.41;5071519;28;20401;-71
2021/09/06 01:09:15;;;;;;;30.33;24.27;;;;;;;15.42;72.64;102008.69;5063741;28;20431;-72
2021/09/06 01:11:40;;;;;;;41.70;33.83;;;;;;;15.41;72.58;102003.41;5062144;28;20243;-73
2021/09/06 01:14:05;;;;;;;43.80;35.27;;;;;;;15.35;72.36;101993.72;5060598;28;20264;-70
2021/09/06 01:16:31;;;;;;;38.60;30.70;;;;;;;15.31;72.44;101995.44;5061770;28;20174;-70
2021/09/06 01:18:56;;;;;;;32.30;25.77;;;;;;;15.26;73.08;102006.75;5061283;28;20165;-70
2021/09/06 01:21:21;;;;;;;32.93;26.20;;;;;;;15.36;72.57;102008.63;5061656;28;20575;-70
2021/09/06 01:23:46;;;;;;;30.87;25.40;;;;;;;15.32;72.89;102014.72;5061297;28;20472;-70
2021/09/06 01:26:12;;;;;;;33.00;24.53;;;;;;;15.30;72.96;102004.19;5062931;28;20180;-69
2021/09/06 01:28:37;;;;;;;34.40;28.03;;;;;;;15.41;72.55;102006.94;5061185;28;20169;-70
2021/09/06 01:31:02;;;;;;;33.30;26.90;;;;;;;15.47;72.10;101999.09;5061222;28;20168;-68
2021/09/06 01:33:28;;;;;;;35.93;28.13;;;;;;;15.32;72.60;102001.59;5060735;28;20276;-69
2021/09/06 01:35:53;;;;;;;35.27;26.90;;;;;;;15.40;72.23;101996.41;5061190;28;20169;-70
2021/09/06 01:38:18;;;;;;;32.60;26.13;;;;;;;15.27;72.92;101998.03;5060942;28;20181;-73
2021/09/06 01:40:44;;;;;;;28.83;24.10;;;;;;;15.28;72.95;101998.03;5061228;28;20215;-77
2021/09/06 01:43:09;;;;;;;29.43;25.90;;;;;;;15.47;72.41;101995.59;5061311;28;20435;-72
2021/09/06 01:45:34;;;;;;;36.67;24.57;;;;;;;15.39;71.89;101995.50;5060546;28;20253;-70
2021/09/06 01:48:00;;;;;;;30.10;25.67;;;;;;;15.68;71.35;101989.63;5061076;28;20224;-69
2021/09/06 01:50:25;;;;;;;29.70;24.43;;;;;;;15.66;71.50;101994.00;5060837;28;20169;-69
2021/09/06 01:52:51;;;;;;;34.83;26.07;;;;;;;15.54;71.89;101986.91;5061443;28;20174;-70
2021/09/06 01:55:16;;;;;;;30.50;25.57;;;;;;;15.45;72.09;101992.97;5060803;28;20173;-70
2021/09/06 01:57:41;;;;;;;30.90;25.73;;;;;;;15.42;71.98;101986.78;5059798;28;20176;-70
2021/09/06 02:00:07;;;;;;;31.10;24.00;;;;;;;15.40;72.43;101992.03;5060901;28;20225;-70
2021/09/06 02:02:33;;;;;;;31.10;25.97;;;;;;;15.44;72.43;101991.19;5060644;28;20188;-70
2021/09/06 02:04:58;;;;;;;29.23;25.50;;;;;;;15.11;73.21;101982.13;5060455;28;20507;-71
2021/09/06 02:07:23;;;;;;;29.27;24.27;;;;;;;15.24;72.67;101984.88;5061213;28;20216;-70
2021/09/06 02:09:49;;;;;;;29.03;25.20;;;;;;;15.13;73.54;101984.75;5060579;28;20185;-70
2021/09/06 02:12:14;;;;;;;30.93;24.80;;;;;;;15.10;73.58;101985.59;5060566;28;20247;-70
2021/09/06 02:14:39;;;;;;;32.40;24.57;;;;;;;15.18;73.15;101987.41;5060695;28;20569;-70
2021/09/06 02:17:05;;;;;;;28.83;23.73;;;;;;;15.51;71.94;101986.88;5060325;28;20174;-70
2021/09/06 02:19:30;;;;;;;36.00;26.27;;;;;;;15.25;72.72;101990.13;5060306;28;20178;-70
2021/09/06 02:21:55;;;;;;;28.20;25.03;;;;;;;15.26;72.85;101984.03;5060924;28;20166;-70
2021/09/06 02:24:21;;;;;;;29.70;24.67;;;;;;;15.45;72.18;101979.81;5060169;28;20219;-70
2021/09/06 02:26:46;;;;;;;30.77;24.93;;;;;;;15.34;72.78;101989.31;5060359;28;20177;-70
2021/09/06 02:29:12;;;;;;;30.53;25.13;;;;;;;15.35;72.27;101990.22;5061002;28;20170;-70
2021/09/06 02:31:37;;;;;;;32.07;25.33;;;;;;;15.26;72.93;101996.25;5060817;28;20280;-70
2021/09/06 02:34:03;;;;;;;30.17;23.07;;;;;;;15.24;72.29;101987.50;5060301;28;20177;-71
2021/09/06 02:36:28;;;;;;;27.77;23.00;;;;;;;15.22;72.45;102000.63;5060710;28;20226;-70
2021/09/06 02:38:54;;;;;;;28.70;24.10;;;;;;;15.50;71.88;101995.63;5060124;28;20213;-70
2021/09/06 02:41:19;;;;;;;28.30;23.37;;;;;;;15.32;72.40;102006.84;5059831;28;20288;-70
2021/09/06 02:43:44;;;;;;;30.13;22.90;;;;;;;15.29;72.32;102007.69;5060240;28;20169;-69
2021/09/06 02:46:09;;;;;;;25.23;22.20;;;;;;;15.10;72.80;102003.97;5059739;28;20173;-70
2021/09/06 02:48:35;;;;;;;30.70;23.70;;;;;;;15.20;72.57;102010.22;5059911;28;20177;-70
2021/09/06 02:51:00;;;;;;;29.17;24.03;;;;;;;15.19;72.58;102005.81;5060672;28;20466;-69
2021/09/06 02:53:25;;;;;;;29.67;23.20;;;;;;;15.18;72.76;102003.19;5058919;28;20452;-69
2021/09/06 02:55:51;;;;;;;28.40;22.70;;;;;;;15.03;73.00;101999.50;5059735;28;20177;-71
2021/09/06 02:58:16;;;;;;;27.43;23.70;;;;;;;15.25;72.17;101999.75;5060142;28;20201;-70
2021/09/06 03:00:41;;;;;;;28.50;23.53;;;;;;;15.06;73.25;101999.56;5059758;28;20613;-70
2021/09/06 03:03:07;;;;;;;28.90;24.20;;;;;;;15.02;73.01;102003.03;5061556;28;20173;-69
2021/09/06 03:05:32;;;;;;;27.80;24.20;;;;;;;15.10;72.85;102005.72;5061032;28;20261;-69
2021/09/06 03:07:58;;;;;;;30.47;23.13;;;;;;;14.85;73.41;102000.19;5059132;28;20184;-71
2021/09/06 03:10:24;;;;;;;30.40;24.70;;;;;;;14.88;73.09;102002.84;5059326;28;20215;-69
2021/09/06 03:12:49;;;;;;;30.33;24.77;;;;;;;14.87;73.06;101998.47;5059823;28;20378;-69
2021/09/06 03:15:14;;;;;;;29.40;24.13;;;;;;;14.71;73.80;101999.13;5059100;28;20260;-70
2021/09/06 03:17:40;;;;;;;30.87;25.47;;;;;;;14.69;73.62;102001.72;5059472;28;20183;-70
2021/09/06 03:20:06;;;;;;;34.37;24.77;;;;;;;14.71;73.85;101997.38;5059682;28;20206;-70
2021/09/06 03:22:31;;;;;;;32.13;25.67;;;;;;;14.60;73.75;101996.31;5058398;28;20450;-70
2021/09/06 03:24:56;;;;;;;31.33;24.40;;;;;;;14.46;74.07;101999.66;5059054;28;20514;-69
2021/09/06 03:27:21;;;;;;;30.40;24.20;;;;;;;14.50;74.35;102000.56;5059596;28;20243;-70
2021/09/06 03:29:47;;;;;;;29.87;24.47;;;;;;;14.39;74.54;101996.94;5059087;28;20178;-70
2021/09/06 03:32:12;;;;;;;29.73;23.60;;;;;;;14.34;74.37;101996.84;5058966;28;20194;-69
2021/09/06 03:34:38;;;;;;;31.10;24.23;;;;;;;14.37;74.14;101986.41;5059230;28;20170;-70
2021/09/06 03:37:03;;;;;;;29.40;24.10;;;;;;;14.05;75.23;101986.81;5058813;28;20316;-69
2021/09/06 03:39:28;;;;;;;29.70;24.43;;;;;;;14.20;74.73;101983.53;5058764;28;20431;-71
2021/09/06 03:41:54;;;;;;;29.83;24.03;;;;;;;14.41;73.75;101982.97;5059243;28;20231;-70
2021/09/06 03:44:20;;;;;;;31.73;24.17;;;;;;;14.36;73.63;101979.41;5058574;28;20322;-70
2021/09/06 03:46:45;;;;;;;29.30;24.50;;;;;;;14.39;73.67;101979.44;5058755;28;20236;-70
2021/09/06 03:49:10;;;;;;;29.13;23.13;;;;;;;14.42;73.53;101979.50;5059095;28;20200;-70
2021/09/06 03:51:36;;;;;;;26.77;22.47;;;;;;;14.33;74.15;101984.63;5058759;28;20196;-70
2021/09/06 03:54:01;;;;;;;37.50;25.30;;;;;;;14.27;74.41;101988.00;5058455;28;20158;-69
2021/09/06 03:56:26;;;;;;;30.00;24.50;;;;;;;14.44;73.87;101988.25;5059174;28;20174;-70
2021/09/06 03:58:51;;;;;;;28.30;23.20;;;;;;;14.33;73.71;101979.38;5058475;28;20193;-70
2021/09/06 04:01:17;;;;;;;34.00;26.20;;;;;;;14.21;74.32;101981.81;5058174;28;20578;-70
2021/09/06 04:03:42;;;;;;;30.63;23.73;;;;;;;14.29;74.30;101983.69;5058883;28;20180;-69
2021/09/06 04:06:07;;;;;;;30.13;23.90;;;;;;;14.53;73.21;101982.25;5058359;28;20213;-70
2021/09/06 04:08:33;;;;;;;27.00;23.50;;;;;;;14.38;73.19;101982.03;5058367;28;20187;-69
2021/09/06 04:10:58;;;;;;;29.43;23.97;;;;;;;14.40;73.22;101990.81;5058953;28;20252;-68
2021/09/06 04:13:23;;;;;;;30.33;24.00;;;;;;;14.47;73.24;101985.66;5058149;28;20173;-69
2021/09/06 04:15:49;;;;;;;28.17;23.70;;;;;;;14.16;74.19;101984.34;5058275;28;20570;-69
2021/09/06 04:18:15;;;;;;;30.17;23.93;;;;;;;14.19;73.97;101988.75;5058673;28;20177;-69
2021/09/06 04:20:40;;;;;;;30.70;23.13;;;;;;;14.24;73.75;101982.72;5057221;28;20205;-69
2021/09/06 04:23:06;;;;;;;28.30;25.20;;;;;;;14.41;73.36;101996.09;5058203;28;20402;-69
2021/09/06 04:25:31;;;;;;;32.13;24.80;;;;;;;14.21;73.92;101990.56;5058616;28;20175;-69
2021/09/06 04:27:57;;;;;;;27.43;23.03;;;;;;;14.31;73.96;101994.19;5058136;28;20185;-69
2021/09/06 04:30:22;;;;;;;28.27;24.17;;;;;;;14.35;73.57;101993.38;5058190;28;20546;-69
2021/09/06 04:32:47;;;;;;;31.33;24.13;;;;;;;14.55;72.56;101987.53;5058232;28;20193;-69
2021/09/06 04:35:13;;;;;;;30.03;23.13;;;;;;;14.47;72.63;101990.91;5057124;28;20228;-70
2021/09/06 04:37:39;;;;;;;29.83;26.13;;;;;;;14.35;73.28;101988.13;5057200;28;20208;-69
2021/09/06 04:40:05;;;;;;;34.10;25.30;;;;;;;14.52;72.48;101990.09;5059549;28;20558;-69
2021/09/06 04:42:30;;;;;;;30.53;23.57;;;;;;;14.49;72.87;102002.31;5059251;28;20424;-69
2021/09/06 04:44:55;;;;;;;29.43;23.00;;;;;;;14.29;73.59;101995.94;5058117;28;20408;-70
2021/09/06 04:47:21;;;;;;;28.73;22.17;;;;;;;14.31;73.35;102002.06;5058250;28;20629;-70
2021/09/06 04:49:46;;;;;;;28.70;23.37;;;;;;;14.40;73.17;101996.06;5057923;28;20205;-70
2021/09/06 04:52:12;;;;;;;27.53;22.60;;;;;;;14.34;73.59;101999.47;5057476;28;20256;-69
2021/09/06 04:54:37;;;;;;;26.50;22.67;;;;;;;14.53;73.21;101997.09;5057756;28;20441;-70
2021/09/06 04:57:03;;;;;;;28.90;23.33;;;;;;;14.38;73.95;101997.78;5057841;28;20391;-70
2021/09/06 04:59:28;;;;;;;25.70;22.33;;;;;;;14.53;73.21;101998.00;5057546;28;20184;-69
2021/09/06 05:01:54;;;;;;;29.23;23.13;;;;;;;14.51;73.41;102004.09;5057784;28;20472;-69
2021/09/06 05:04:19;;;;;;;28.20;22.90;;;;;;;14.47;73.69;102021.53;5057692;28;20170;-69
2021/09/06 05:06:44;;;;;;;27.43;22.10;;;;;;;14.42;73.96;102018.84;5057552;28;20209;-69
2021/09/06 05:09:10;;;;;;;26.77;20.53;;;;;;;14.44;73.57;102025.00;5057630;28;20181;-70
2021/09/06 05:11:35;;;;;;;23.77;20.87;;;;;;;14.50;73.51;102018.94;5057656;28;20201;-70
2021/09/06 05:14:00;;;;;;;22.33;19.90;;;;;;;14.57;73.89;102022.53;5058267;28;20511;-71
2021/09/06 05:16:26;;;;;;;22.53;19.50;;;;;;;14.71;73.22;102014.88;5057830;28;20185;-69
2021/09/06 05:18:51;;;;;;;21.30;19.10;;;;;;;14.68;73.68;102026.22;5057899;28;20169;-70
2021/09/06 05:21:17;;;;;;;20.57;18.37;;;;;;;14.59;73.78;102021.69;5057845;28;20198;-69
2021/09/06 05:23:42;;;;;;;23.17;19.20;;;;;;;14.70;73.00;102014.00;5057544;28;20197;-69
2021/09/06 05:26:08;;;;;;;22.40;17.73;;;;;;;14.64;73.06;102022.69;5057300;28;20246;-69
2021/09/06 05:28:33;;;;;;;18.57;16.83;;;;;;;14.64;73.62;102021.81;5058186;28;20178;-69
2021/09/06 05:31:02;;;;;;;19.03;17.13;;;;;;;14.57;73.66;102031.31;5057450;28;20260;-69
2021/09/06 05:33:27;;;;;;;18.97;16.93;;;;;;;15.12;72.26;102023.25;5059115;28;20201;-69
2021/09/06 05:35:53;;;;;;;24.50;17.67;;;;;;;14.94;72.55;102025.69;5061000;28;20423;-69
2021/09/06 05:38:18;;;;;;;19.10;17.00;;;;;;;15.12;72.00;102027.63;5061214;28;20264;-71
2021/09/06 05:40:44;;;;;;;21.93;18.43;;;;;;;15.01;72.05;102031.91;5063314;28;20255;-71
2021/09/06 05:43:09;;;;;;;17.80;16.00;;;;;;;16.19;68.16;102029.53;5063439;28;20180;-69
2021/09/06 05:45:34;;;;;;;18.53;15.13;;;;;;;17.01;64.94;102030.00;5060391;28;20502;-70
2021/09/06 05:48:00;;;;;;;15.53;14.00;;;;;;;18.07;60.99;102021.34;5060066;28;20233;-70
2021/09/06 05:50:26;;;;;;;14.93;13.43;;;;;;;18.42;59.28;102020.41;5061185;28;20549;-70
2021/09/06 05:52:51;;;;;;;14.33;12.83;;;;;;;18.52;58.79;102023.91;5060713;28;20169;-70
2021/09/06 05:55:17;;;;;;;13.97;12.17;;;;;;;18.94;57.87;102031.72;5060136;28;20428;-70
2021/09/06 05:57:42;;;;;;;16.27;12.13;;;;;;;19.50;56.01;102027.00;5060879;28;20177;-70
2021/09/06 06:00:08;;;;;;;12.57;11.30;;;;;;;19.64;55.85;102032.19;5060527;28;20208;-70
2021/09/06 06:02:34;;;;;;;13.47;12.20;;;;;;;19.55;55.61;102024.31;5060053;28;20185;-68
2021/09/06 06:04:59;;;;;;;16.33;12.07;;;;;;;19.96;55.11;102029.31;5053161;28;20170;-69
2021/09/06 06:07:25;;;;;;;13.83;12.50;;;;;;;19.92;54.73;102024.06;5051971;28;20674;-68
2021/09/06 06:09:52;;;;;;;15.07;12.83;;;;;;;19.96;54.83;102024.00;5049685;28;20189;-70
2021/09/06 06:12:18;;;;;;;15.20;13.43;;;;;;;19.66;55.52;102019.81;5064323;28;20447;-69
2021/09/06 06:14:43;;;;;;;16.57;14.97;;;;;;;20.81;53.03;102025.78;5063296;28;20440;-70
2021/09/06 06:17:08;;;;;;;17.67;15.70;;;;;;;21.55;50.35;102023.88;5076154;28;20259;-70
2021/09/06 06:19:34;;;;;;;20.87;15.20;;;;;;;21.23;51.57;102021.69;5066246;28;20168;-70
2021/09/06 06:21:59;;;;;;;17.80;15.97;;;;;;;21.00;52.21;102034.38;5070364;28;20479;-70
2021/09/06 06:24:24;;;;;;;21.93;18.97;;;;;;;21.27;51.41;102024.28;5058321;28;20182;-70
2021/09/06 06:26:49;;;;;;;18.67;15.90;;;;;;;21.98;49.34;102019.66;5059650;28;20217;-70
2021/09/06 06:29:15;;;;;;;17.40;15.33;;;;;;;22.34;48.93;102019.88;5059620;28;20422;-70
2021/09/06 06:31:40;;;;;;;18.50;16.57;;;;;;;21.84;49.94;102025.22;5059051;28;20170;-68
2021/09/06 06:34:06;;;;;;;17.30;15.50;;;;;;;23.12;47.05;102027.16;5060084;28;20201;-68
2021/09/06 06:36:31;;;;;;;17.40;15.80;;;;;;;22.68;48.41;102024.56;5059929;28;20200;-68
2021/09/06 06:38:57;;;;;;;20.13;15.90;;;;;;;22.35;48.78;102026.97;5058766;28;20185;-70
2021/09/06 06:41:22;;;;;;;16.80;15.10;;;;;;;21.96;49.99;102035.63;5059109;28;20189;-68
2021/09/06 06:43:47;;;;;;;17.30;15.63;;;;;;;22.31;49.40;102022.59;5058683;28;20219;-70
2021/09/06 06:46:14;;;;;;;22.90;17.77;;;;;;;23.55;46.68;102029.72;5059261;28;20185;-68
2021/09/06 06:48:40;;;;;;;16.03;14.53;;;;;;;24.02;45.69;102033.94;5059844;28;20168;-69
2021/09/06 06:51:05;;;;;;;16.17;14.77;;;;;;;24.21;44.92;102029.00;5062707;28;20420;-69
2021/09/06 06:53:30;;;;;;;16.80;15.20;;;;;;;24.08;45.32;102032.91;5059190;28;20177;-69
2021/09/06 06:55:56;;;;;;;15.53;14.03;;;;;;;23.77;45.85;102029.19;5059624;28;20452;-69
2021/09/06 06:58:21;;;;;;;15.47;14.00;;;;;;;22.76;48.06;102024.38;5059321;28;20248;-69
2021/09/06 07:00:46;;;;;;;17.93;16.13;;;;;;;23.80;45.94;102022.91;5059139;28;20567;-69
2021/09/06 07:03:12;;;;;;;14.80;13.63;;;;;;;25.08;43.29;102024.72;5058799;28;20228;-69
2021/09/06 07:05:37;;;;;;;15.97;14.37;;;;;;;23.99;44.74;102034.88;5059494;28;20219;-68
2021/09/06 07:08:03;;;;;;;15.53;14.13;;;;;;;24.20;45.19;102028.09;5059474;28;20522;-69
2021/09/06 07:10:28;;;;;;;15.03;13.60;;;;;;;24.93;43.00;102018.06;5059199;28;20185;-70
2021/09/06 07:12:54;;;;;;;14.93;13.53;;;;;;;25.09;42.66;102023.81;5058558;28;20422;-70
2021/09/06 07:15:19;;;;;;;19.00;13.57;;;;;;;24.86;43.05;102029.84;5058826;28;20193;-70
2021/09/06 07:17:44;;;;;;;14.60;13.30;;;;;;;24.79;43.30;102020.25;5059284;28;20169;-70
2021/09/06 07:20:10;;;;;;;15.13;13.73;;;;;;;24.75;43.33;102022.16;5059057;28;20212;-71
2021/09/06 07:22:35;;;;;;;14.07;12.77;;;;;;;25.63;41.30;102014.09;5058979;28;20370;-71
2021/09/06 07:25:01;;;;;;;15.40;13.40;;;;;;;25.85;41.47;102016.91;5059134;28;20254;-70
2021/09/06 07:27:27;;;;;;;15.00;12.60;;;;;;;26.17;40.84;102022.09;5058896;28;20188;-70
2021/09/06 07:29:52;;;;;;;14.70;13.47;;;;;;;26.08;40.91;102023.28;5059296;28;20239;-70
2021/09/06 07:32:18;;;;;;;15.90;13.40;;;;;;;26.30;40.00;102030.53;5059091;28;20227;-69
2021/09/06 07:34:44;;;;;;;14.37;12.87;;;;;;;25.44;42.08;102034.31;5058573;28;20440;-70
2021/09/06 07:37:09;;;;;;;15.33;13.93;;;;;;;25.40;41.99;102033.56;5058904;28;20503;-70
2021/09/06 07:39:36;;;;;;;15.77;14.20;;;;;;;26.13;40.85;102034.69;5058547;28;20536;-70
2021/09/06 07:42:02;;;;;;;14.27;13.00;;;;;;;26.12;40.53;102032.09;5058693;28;20477;-71
2021/09/06 07:44:28;;;;;;;14.37;12.97;;;;;;;26.51;40.06;102029.75;5057543;28;20428;-72
2021/09/06 07:46:54;;;;;;;15.63;14.00;;;;;;;26.11;40.72;102041.03;5058600;28;20470;-71
2021/09/06 07:49:20;;;;;;;13.83;12.47;;;;;;;26.40;40.96;102026.63;5057951;28;20173;-71
2021/09/06 07:51:52;;;;;;;13.53;12.20;;;;;;;27.10;38.65;102027.53;5058592;28;20423;-69
2021/09/06 07:54:20;;;;;;;14.27;12.93;;;;;;;26.64;39.45;102034.66;5048470;28;20485;-69
2021/09/06 07:56:47;;;;;;;13.90;12.17;;;;;;;26.82;40.72;102034.00;5050770;28;20482;-73
2021/09/06 07:59:13;;;;;;;13.67;11.57;;;;;;;25.68;42.27;102040.66;5056060;28;20435;-75
2021/09/06 08:01:39;;;;;;;15.40;11.70;;;;;;;25.29;43.47;102046.31;5051903;28;20467;-73
2021/09/06 08:04:05;;;;;;;13.97;12.50;;;;;;;26.95;40.38;102041.53;5052169;28;20180;-72
2021/09/06 08:06:30;;;;;;;13.77;12.47;;;;;;;26.89;39.34;102038.16;5062096;28;20423;-72
2021/09/06 08:08:55;;;;;;;14.33;12.83;;;;;;;25.37;41.23;102045.19;5057550;28;20205;-73
2021/09/06 08:11:21;;;;;;;13.73;12.53;;;;;;;25.65;40.70;102048.78;5057418;28;20270;-72
2021/09/06 08:13:46;;;;;;;14.43;13.23;;;;;;;27.14;38.29;102044.38;5049724;28;20190;-72
2021/09/06 08:16:11;;;;;;;15.10;13.40;;;;;;;25.72;41.30;102058.31;5048121;28;20173;-70
2021/09/06 08:18:37;;;;;;;15.00;13.70;;;;;;;26.69;38.89;102048.72;5049419;28;20194;-71
2021/09/06 08:21:02;;;;;;;15.03;13.57;;;;;;;27.30;39.23;102055.34;5038451;28;20204;-77
2021/09/06 08:23:27;;;;;;;14.00;12.60;;;;;;;26.73;38.80;102061.09;5037629;28;20178;-77
2021/09/06 08:25:53;;;;;;;14.63;13.20;;;;;;;25.77;40.32;102069.72;5051930;28;20218;-76
2021/09/06 08:28:18;;;;;;;13.93;12.53;;;;;;;24.85;42.61;102071.63;5048596;28;20161;-76
2021/09/06 08:30:44;;;;;;;13.20;12.00;;;;;;;24.95;42.38;102077.59;5042996;28;20598;-77
2021/09/06 08:33:09;;;;;;;14.13;12.83;;;;;;;24.61;43.32;102072.31;5037864;28;20476;-72
2021/09/06 08:35:35;;;;;;;14.27;12.90;;;;;;;25.09;43.02;102081.66;5037936;28;20228;-73
2021/09/06 08:38:01;;;;;;;12.90;11.73;;;;;;;25.44;41.73;102071.69;5020967;28;20414;-74
2021/09/06 08:40:26;;;;;;;13.60;12.37;;;;;;;25.82;40.98;102072.25;5037657;28;20202;-72
2021/09/06 08:42:52;;;;;;;12.80;11.50;;;;;;;26.87;39.06;102068.59;5057183;28;20427;-72
2021/09/06 08:45:18;;;;;;;13.93;11.27;;;;;;;26.77;38.74;102061.84;5057669;28;20205;-74
2021/09/06 08:47:44;;;;;;;12.70;11.50;;;;;;;27.90;36.66;102067.19;5056543;28;20809;-73
2021/09/06 08:50:11;;;;;;;12.23;11.03;;;;;;;26.99;37.98;102067.25;5038038;28;20551;-73
2021/09/06 08:52:37;;;;;;;12.93;11.80;;;;;;;26.28;39.46;102069.84;5037384;28;20681;-73
2021/09/06 08:55:04;;;;;;;13.13;11.80;;;;;;;27.00;38.45;102074.34;5037896;28;20500;-73
2021/09/06 08:57:29;;;;;;;11.77;10.67;;;;;;;29.80;33.46;102065.66;5038050;28;20558;-74
2021/09/06 08:59:59;;;;;;;13.50;12.30;;;;;;;27.70;37.40;102073.38;5037384;28;20421;-74
2021/09/06 09:02:25;;;;;;;13.67;11.07;;;;;;;27.86;37.00;102076.28;5037842;28;20552;-74
2021/09/06 09:05:02;;;;;;;13.27;11.73;;;;;;;27.36;37.58;102079.19;5037581;28;20426;-74
2021/09/06 09:07:29;;;;;;;13.33;11.93;;;;;;;27.42;38.97;102075.44;5040006;28;20260;-74
2021/09/06 09:09:55;;;;;;;12.83;11.70;;;;;;;28.80;35.83;102076.69;5041445;28;20689;-73
2021/09/06 09:12:23;;;;;;;13.63;12.23;;;;;;;28.22;36.20;102075.66;5042249;28;20413;-74
2021/09/06 09:14:54;;;;;;;15.23;11.73;;;;;;;28.01;36.06;102077.47;5043807;28;20441;-71
2021/09/06 09:17:20;;;;;;;12.23;11.13;;;;;;;27.49;37.98;102075.13;5058196;28;20512;-72
2021/09/06 09:19:46;;;;;;;12.20;11.10;;;;;;;26.84;38.23;102080.28;5032779;28;20428;-72
2021/09/06 09:22:16;;;;;;;12.53;11.30;;;;;;;27.64;36.48;102073.63;5051161;28;20656;-73
2021/09/06 09:24:42;;;;;;;11.87;10.77;;;;;;;27.05;37.63;102080.41;5041871;28;20417;-74
2021/09/06 09:27:13;;;;;;;12.20;11.10;;;;;;;27.18;37.45;102079.00;5041368;28;20409;-74
2021/09/06 09:29:43;;;;;;;12.30;11.00;;;;;;;27.60;36.52;102080.03;5041513;28;20421;-74
2021/09/06 09:32:11;;;;;;;12.57;11.47;;;;;;;28.77;34.62;102068.78;5040806;28;20507;-73
2021/09/06 09:34:41;;;;;;;11.40;10.40;;;;;;;27.50;35.92;102081.34;5041081;28;20425;-74
2021/09/06 09:37:08;;;;;;;12.27;11.07;;;;;;;28.28;35.18;102077.22;5048989;28;20451;-72
2021/09/06 09:39:34;;;;;;;13.20;11.33;;;;;;;29.06;33.58;102062.06;5060889;28;20416;-72
2021/09/06 09:42:04;;;;;;;12.50;11.20;;;;;;;27.12;36.62;102067.66;5060482;28;20459;-75
2021/09/06 09:44:30;;;;;;;11.67;10.67;;;;;;;26.84;37.67;102068.72;5053054;28;20412;-74
2021/09/06 09:47:00;;;;;;;11.67;10.77;;;;;;;27.17;36.45;102071.91;5047741;28;20473;-74
2021/09/06 09:49:33;;;;;;;12.70;11.50;;;;;;;27.33;36.84;102065.91;5052136;28;20186;-76
2021/09/06 09:51:58;;;;;;;11.30;10.30;;;;;;;27.37;35.69;102062.22;5052346;28;20429;-76
2021/09/06 09:54:24;;;;;;;10.80;10.00;;;;;;;26.31;37.49;102067.06;5049314;28;20409;-72
2021/09/06 09:56:49;;;;;;;11.40;10.40;;;;;;;27.48;37.44;102059.09;5039757;28;20170;-72
2021/09/06 09:59:16;;;;;;;12.13;11.00;;;;;;;26.03;38.33;102063.56;5040431;28;20277;-72
2021/09/06 10:01:44;;;;;;;13.03;11.70;;;;;;;25.67;41.05;102060.28;5040402;28;20214;-71
2021/09/06 10:04:12;;;;;;;11.93;10.80;;;;;;;27.62;36.50;102047.84;5040031;28;20420;-73
2021/09/06 10:06:38;;;;;;;13.10;11.80;;;;;;;26.30;39.03;102058.13;5039605;28;20449;-74
2021/09/06 10:09:04;;;;;;;12.13;11.07;;;;;;;27.05;38.56;102053.66;5039257;28;20726;-71
2021/09/06 10:11:37;;;;;;;11.77;10.67;;;;;;;25.92;39.92;102057.66;5048937;28;20536;-73
2021/09/06 10:14:19;;;;;;;12.23;10.77;;;;;;;26.44;38.31;102049.66;5059571;28;21791;-73
2021/09/06 10:16:47;;;;;;;12.00;10.93;;;;;;;25.75;39.96;102054.66;5060043;28;20466;-72
2021/09/06 10:19:13;;;;;;;12.37;11.17;;;;;;;26.02;40.36;102052.84;5060112;28;20838;-76
2021/09/06 10:21:40;;;;;;;11.97;10.97;;;;;;;25.87;40.81;102065.84;5049315;28;20550;-77
2021/09/06 10:24:13;;;;;;;11.80;10.70;;;;;;;25.97;40.00;102054.84;5050230;28;20174;-71
2021/09/06 10:26:38;;;;;;;11.90;10.70;;;;;;;25.86;40.17;102053.41;5057459;28;20448;-73
2021/09/06 10:29:33;;;;;;;12.13;11.03;;;;;;;25.11;40.87;102051.31;5060007;28;20817;-75
2021/09/06 10:32:00;;;;;;;12.67;11.37;;;;;;;25.89;41.17;102049.75;5055050;28;20205;-74
2021/09/06 10:34:28;;;;;;;14.17;11.67;;;;;;;24.76;42.66;102061.25;5059812;28;20840;-74
2021/09/06 10:37:03;;;;;;;13.10;11.80;;;;;;;24.93;42.22;102050.06;5059533;28;20562;-74
2021/09/06 10:39:30;;;;;;;13.80;12.37;;;;;;;24.65;42.62;102050.91;5059072;28;20412;-74
2021/09/06 10:42:03;;;;;;;13.43;12.03;;;;;;;24.48;43.36;102054.00;5059494;28;20456;-76
2021/09/06 10:44:34;;;;;;;11.70;10.60;;;;;;;25.19;42.49;102051.06;5059486;28;20712;-73
2021/09/06 10:47:07;;;;;;;14.57;11.40;;;;;;;25.08;42.16;102064.75;5059536;28;20487;-71
2021/09/06 10:49:32;;;;;;;12.30;11.20;;;;;;;24.73;42.39;102055.13;5059223;28;20477;-74
2021/09/06 10:51:59;;;;;;;14.63;13.13;;;;;;;24.74;43.31;102048.88;5059659;28;20396;-76
2021/09/06 10:54:24;;;;;;;13.50;12.10;;;;;;;25.44;42.12;102043.22;5059206;28;20219;-75
2021/09/06 10:56:51;;;;;;;12.43;11.23;;;;;;;24.78;42.70;102051.41;5049395;28;20806;-76
2021/09/06 10:59:22;;;;;;;12.67;11.57;;;;;;;24.42;41.84;102054.16;5056852;28;20169;-74
2021/09/06 11:01:51;;;;;;;13.47;11.97;;;;;;;24.73;42.27;102053.31;5061621;28;20466;-75
2021/09/06 11:04:16;;;;;;;12.77;11.57;;;;;;;23.74;43.94;102055.03;5054168;28;20455;-75